sensor_id;sensor_type;location;lat;lon;timestamp;temperature;humidity
39525;DHT22;25203;50.754;6.978;2023-05-21T00:01:48;12.00;99.90
39525;DHT22;25203;50.754;6.978;2023-05-21T00:03:49;12.10;99.90
39525;DHT22;25203;50.754;6.978;2023-05-21T00:05:49;12.10;99.90
39525;DHT22;25203;50.754;6.978;2023-05-21T00:07:50;12.00;99.90
39525;DHT22;25203;50.754;6.978;2023-05-21T00:09:52;12.00;99.90
39525;DHT22;25203;50.754;6.978;2023-05-21T00:11:53;12.00;99.90
39525;DHT22;25203;50.754;6.978;2023-05-21T00:13:53;12.00;99.90
39525;DHT22;25203;50.754;6.978;2023-05-21T00:15:54;11.90;99.90
39525;DHT22;25203;50.754;6.978;2023-05-21T00:17:55;11.90;99.90
39525;DHT22;25203;50.754;6.978;2023-05-21T00:19:55;11.90;99.90
39525;DHT22;25203;50.754;6.978;2023-05-21T00:21:56;11.90;99.90
39525;DHT22;25203;50.754;6.978;2023-05-21T00:23:56;11.80;99.90
39525;DHT22;25203;50.754;6.978;2023-05-21T00:25:58;11.80;99.90
39525;DHT22;25203;50.754;6.978;2023-05-21T00:27:59;11.80;99.90
39525;DHT22;25203;50.754;6.978;2023-05-21T00:30:00;11.80;99.90
39525;DHT22;25203;50.754;6.978;2023-05-21T00:32:00;11.80;99.90
39525;DHT22;25203;50.754;6.978;2023-05-21T00:34:01;11.70;99.90
39525;DHT22;25203;50.754;6.978;2023-05-21T00:36:01;11.70;99.90
39525;DHT22;25203;50.754;6.978;2023-05-21T00:38:02;11.80;99.90
39525;DHT22;25203;50.754;6.978;2023-05-21T00:40:04;11.80;99.90
39525;DHT22;25203;50.754;6.978;2023-05-21T00:42:06;11.80;99.90
39525;DHT22;25203;50.754;6.978;2023-05-21T00:44:08;11.80;99.90
39525;DHT22;25203;50.754;6.978;2023-05-21T00:46:14;11.80;99.90
39525;DHT22;25203;50.754;6.978;2023-05-21T00:48:16;11.70;99.90
39525;DHT22;25203;50.754;6.978;2023-05-21T00:50:17;11.80;99.90
39525;DHT22;25203;50.754;6.978;2023-05-21T00:52:18;11.80;99.90
39525;DHT22;25203;50.754;6.978;2023-05-21T00:54:20;11.90;99.90
39525;DHT22;25203;50.754;6.978;2023-05-21T00:56:22;11.90;99.90
39525;DHT22;25203;50.754;6.978;2023-05-21T00:58:23;11.90;99.90
39525;DHT22;25203;50.754;6.978;2023-05-21T01:00:24;12.00;99.90
39525;DHT22;25203;50.754;6.978;2023-05-21T01:02:25;11.90;99.90
39525;DHT22;25203;50.754;6.978;2023-05-21T01:04:26;12.00;99.90
39525;DHT22;25203;50.754;6.978;2023-05-21T01:06:27;11.90;99.90
39525;DHT22;25203;50.754;6.978;2023-05-21T01:08:28;12.00;99.90
39525;DHT22;25203;50.754;6.978;2023-05-21T01:10:29;12.00;99.90
39525;DHT22;25203;50.754;6.978;2023-05-21T01:12:31;12.00;99.90
39525;DHT22;25203;50.754;6.978;2023-05-21T01:14:32;12.00;99.90
39525;DHT22;25203;50.754;6.978;2023-05-21T01:16:38;12.00;99.90
39525;DHT22;25203;50.754;6.978;2023-05-21T01:18:40;12.00;99.90
39525;DHT22;25203;50.754;6.978;2023-05-21T01:20:42;12.00;99.90
39525;DHT22;25203;50.754;6.978;2023-05-21T01:22:54;12.00;99.90
39525;DHT22;25203;50.754;6.978;2023-05-21T01:24:55;12.10;99.90
39525;DHT22;25203;50.754;6.978;2023-05-21T01:26:57;12.00;99.90
39525;DHT22;25203;50.754;6.978;2023-05-21T01:28:58;12.10;99.90
39525;DHT22;25203;50.754;6.978;2023-05-21T01:31:03;12.10;99.90
39525;DHT22;25203;50.754;6.978;2023-05-21T01:35:08;12.10;99.90
39525;DHT22;25203;50.754;6.978;2023-05-21T01:37:18;12.10;99.90
39525;DHT22;25203;50.754;6.978;2023-05-21T01:39:34;12.10;99.90
39525;DHT22;25203;50.754;6.978;2023-05-21T01:41:41;12.10;99.90
39525;DHT22;25203;50.754;6.978;2023-05-21T01:43:44;12.10;99.90
39525;DHT22;25203;50.754;6.978;2023-05-21T01:45:46;12.20;99.90
39525;DHT22;25203;50.754;6.978;2023-05-21T01:47:49;12.20;99.90
39525;DHT22;25203;50.754;6.978;2023-05-21T01:49:51;12.20;99.90
39525;DHT22;25203;50.754;6.978;2023-05-21T01:51:52;12.20;99.90
39525;DHT22;25203;50.754;6.978;2023-05-21T01:53:52;12.20;99.90
39525;DHT22;25203;50.754;6.978;2023-05-21T01:55:53;12.20;99.90
39525;DHT22;25203;50.754;6.978;2023-05-21T01:57:54;12.20;99.90
39525;DHT22;25203;50.754;6.978;2023-05-21T01:59:56;12.10;99.90
39525;DHT22;25203;50.754;6.978;2023-05-21T02:01:57;12.10;99.90
39525;DHT22;25203;50.754;6.978;2023-05-21T02:03:57;12.10;99.90
39525;DHT22;25203;50.754;6.978;2023-05-21T02:05:58;12.10;99.90
39525;DHT22;25203;50.754;6.978;2023-05-21T02:07:59;12.10;99.90
39525;DHT22;25203;50.754;6.978;2023-05-21T02:10:00;12.10;99.90
39525;DHT22;25203;50.754;6.978;2023-05-21T02:12:01;12.00;99.90
39525;DHT22;25203;50.754;6.978;2023-05-21T02:14:02;12.00;99.90
39525;DHT22;25203;50.754;6.978;2023-05-21T02:16:03;11.90;99.90
39525;DHT22;25203;50.754;6.978;2023-05-21T02:18:04;11.90;99.90
39525;DHT22;25203;50.754;6.978;2023-05-21T02:20:05;11.90;99.90
39525;DHT22;25203;50.754;6.978;2023-05-21T02:22:12;11.90;99.90
39525;DHT22;25203;50.754;6.978;2023-05-21T02:24:13;11.90;99.90
39525;DHT22;25203;50.754;6.978;2023-05-21T02:26:14;11.90;99.90
39525;DHT22;25203;50.754;6.978;2023-05-21T02:28:14;11.90;99.90
39525;DHT22;25203;50.754;6.978;2023-05-21T02:30:15;11.90;99.90
39525;DHT22;25203;50.754;6.978;2023-05-21T02:32:15;11.80;99.90
39525;DHT22;25203;50.754;6.978;2023-05-21T02:34:16;11.80;99.90
39525;DHT22;25203;50.754;6.978;2023-05-21T02:36:19;11.70;99.90
39525;DHT22;25203;50.754;6.978;2023-05-21T02:38:20;11.70;99.90
39525;DHT22;25203;50.754;6.978;2023-05-21T02:40:22;11.70;99.90
39525;DHT22;25203;50.754;6.978;2023-05-21T02:42:24;11.70;99.90
39525;DHT22;25203;50.754;6.978;2023-05-21T02:44:25;11.80;99.90
39525;DHT22;25203;50.754;6.978;2023-05-21T02:46:25;11.80;99.90
39525;DHT22;25203;50.754;6.978;2023-05-21T02:48:26;11.80;99.90
39525;DHT22;25203;50.754;6.978;2023-05-21T02:50:26;11.80;99.90
39525;DHT22;25203;50.754;6.978;2023-05-21T02:52:27;11.80;99.90
39525;DHT22;25203;50.754;6.978;2023-05-21T02:54:28;11.80;99.90
39525;DHT22;25203;50.754;6.978;2023-05-21T02:56:29;11.80;99.90
39525;DHT22;25203;50.754;6.978;2023-05-21T02:58:29;11.80;99.90
39525;DHT22;25203;50.754;6.978;2023-05-21T03:00:30;11.80;99.90
39525;DHT22;25203;50.754;6.978;2023-05-21T03:02:31;11.80;99.90
39525;DHT22;25203;50.754;6.978;2023-05-21T03:04:31;11.80;99.90
39525;DHT22;25203;50.754;6.978;2023-05-21T03:06:32;11.70;99.90
39525;DHT22;25203;50.754;6.978;2023-05-21T03:08:34;11.70;99.90
39525;DHT22;25203;50.754;6.978;2023-05-21T03:10:34;11.70;99.90
39525;DHT22;25203;50.754;6.978;2023-05-21T03:12:35;11.70;99.90
39525;DHT22;25203;50.754;6.978;2023-05-21T03:14:36;11.70;99.90
39525;DHT22;25203;50.754;6.978;2023-05-21T03:16:37;11.70;99.90
39525;DHT22;25203;50.754;6.978;2023-05-21T03:18:40;11.60;99.90
39525;DHT22;25203;50.754;6.978;2023-05-21T03:20:42;11.60;99.90
39525;DHT22;25203;50.754;6.978;2023-05-21T03:22:46;11.50;99.90
39525;DHT22;25203;50.754;6.978;2023-05-21T03:24:47;11.50;99.90
39525;DHT22;25203;50.754;6.978;2023-05-21T03:26:48;11.50;99.90
39525;DHT22;25203;50.754;6.978;2023-05-21T03:28:49;11.50;99.90
39525;DHT22;25203;50.754;6.978;2023-05-21T03:30:50;11.50;99.90
39525;DHT22;25203;50.754;6.978;2023-05-21T03:32:51;11.50;99.90
39525;DHT22;25203;50.754;6.978;2023-05-21T03:34:51;11.50;99.90
39525;DHT22;25203;50.754;6.978;2023-05-21T03:36:52;11.40;99.90
39525;DHT22;25203;50.754;6.978;2023-05-21T03:38:53;11.50;99.90
39525;DHT22;25203;50.754;6.978;2023-05-21T03:40:53;11.50;99.90
39525;DHT22;25203;50.754;6.978;2023-05-21T03:42:54;11.50;99.90
39525;DHT22;25203;50.754;6.978;2023-05-21T03:44:54;11.50;99.90
39525;DHT22;25203;50.754;6.978;2023-05-21T03:46:55;11.50;99.90
39525;DHT22;25203;50.754;6.978;2023-05-21T03:48:56;11.50;99.90
39525;DHT22;25203;50.754;6.978;2023-05-21T03:50:57;11.50;99.90
39525;DHT22;25203;50.754;6.978;2023-05-21T03:52:58;11.50;99.90
39525;DHT22;25203;50.754;6.978;2023-05-21T03:54:58;11.50;99.90
39525;DHT22;25203;50.754;6.978;2023-05-21T03:56:59;11.50;99.90
39525;DHT22;25203;50.754;6.978;2023-05-21T03:59:00;11.50;99.90
39525;DHT22;25203;50.754;6.978;2023-05-21T04:01:00;11.50;99.90
39525;DHT22;25203;50.754;6.978;2023-05-21T04:03:03;11.50;99.90
39525;DHT22;25203;50.754;6.978;2023-05-21T04:05:03;11.50;99.90
39525;DHT22;25203;50.754;6.978;2023-05-21T04:07:04;11.50;99.90
39525;DHT22;25203;50.754;6.978;2023-05-21T04:09:05;11.60;99.90
39525;DHT22;25203;50.754;6.978;2023-05-21T04:11:05;11.60;99.90
39525;DHT22;25203;50.754;6.978;2023-05-21T04:13:06;11.60;99.90
39525;DHT22;25203;50.754;6.978;2023-05-21T04:15:07;11.70;99.90
39525;DHT22;25203;50.754;6.978;2023-05-21T04:17:07;11.70;99.90
39525;DHT22;25203;50.754;6.978;2023-05-21T04:19:09;11.70;99.90
39525;DHT22;25203;50.754;6.978;2023-05-21T04:21:09;11.70;99.90
39525;DHT22;25203;50.754;6.978;2023-05-21T04:23:10;11.80;99.90
39525;DHT22;25203;50.754;6.978;2023-05-21T04:25:11;11.80;99.90
39525;DHT22;25203;50.754;6.978;2023-05-21T04:27:12;11.80;99.90
39525;DHT22;25203;50.754;6.978;2023-05-21T04:29:13;11.80;99.90
39525;DHT22;25203;50.754;6.978;2023-05-21T04:31:17;11.80;99.90
39525;DHT22;25203;50.754;6.978;2023-05-21T04:33:17;11.90;99.90
39525;DHT22;25203;50.754;6.978;2023-05-21T04:35:19;11.90;99.90
39525;DHT22;25203;50.754;6.978;2023-05-21T04:37:20;12.00;99.90
39525;DHT22;25203;50.754;6.978;2023-05-21T04:39:23;11.90;99.90
39525;DHT22;25203;50.754;6.978;2023-05-21T04:41:24;12.10;99.90
39525;DHT22;25203;50.754;6.978;2023-05-21T04:43:24;12.10;99.90
39525;DHT22;25203;50.754;6.978;2023-05-21T04:45:25;12.10;99.90
39525;DHT22;25203;50.754;6.978;2023-05-21T04:47:26;12.10;99.90
39525;DHT22;25203;50.754;6.978;2023-05-21T04:49:29;12.10;99.90
39525;DHT22;25203;50.754;6.978;2023-05-21T04:51:30;12.10;99.90
39525;DHT22;25203;50.754;6.978;2023-05-21T04:53:30;12.10;99.90
39525;DHT22;25203;50.754;6.978;2023-05-21T04:55:31;12.10;99.90
39525;DHT22;25203;50.754;6.978;2023-05-21T04:57:32;12.20;99.90
39525;DHT22;25203;50.754;6.978;2023-05-21T04:59:33;12.20;99.90
39525;DHT22;25203;50.754;6.978;2023-05-21T05:01:34;12.20;99.90
39525;DHT22;25203;50.754;6.978;2023-05-21T05:03:37;12.20;99.90
39525;DHT22;25203;50.754;6.978;2023-05-21T05:05:38;12.20;99.90
39525;DHT22;25203;50.754;6.978;2023-05-21T05:07:39;12.20;99.90
39525;DHT22;25203;50.754;6.978;2023-05-21T05:09:40;12.20;99.90
39525;DHT22;25203;50.754;6.978;2023-05-21T05:11:40;12.20;99.90
39525;DHT22;25203;50.754;6.978;2023-05-21T05:13:41;12.30;99.90
39525;DHT22;25203;50.754;6.978;2023-05-21T05:15:41;12.30;99.90
39525;DHT22;25203;50.754;6.978;2023-05-21T05:17:42;12.40;99.90
39525;DHT22;25203;50.754;6.978;2023-05-21T05:19:43;12.40;99.90
39525;DHT22;25203;50.754;6.978;2023-05-21T05:21:44;12.50;99.90
39525;DHT22;25203;50.754;6.978;2023-05-21T05:23:45;12.50;99.90
39525;DHT22;25203;50.754;6.978;2023-05-21T05:25:46;12.50;99.90
39525;DHT22;25203;50.754;6.978;2023-05-21T05:27:46;12.50;99.90
39525;DHT22;25203;50.754;6.978;2023-05-21T05:29:47;12.60;99.90
39525;DHT22;25203;50.754;6.978;2023-05-21T05:31:48;12.70;99.90
39525;DHT22;25203;50.754;6.978;2023-05-21T05:33:48;12.70;99.90
39525;DHT22;25203;50.754;6.978;2023-05-21T05:35:49;12.80;99.90
39525;DHT22;25203;50.754;6.978;2023-05-21T05:37:49;12.90;99.90
39525;DHT22;25203;50.754;6.978;2023-05-21T05:39:50;12.90;99.90
39525;DHT22;25203;50.754;6.978;2023-05-21T05:41:51;13.00;99.90
39525;DHT22;25203;50.754;6.978;2023-05-21T05:43:51;13.10;99.90
39525;DHT22;25203;50.754;6.978;2023-05-21T05:45:52;13.40;99.90
39525;DHT22;25203;50.754;6.978;2023-05-21T05:47:52;13.50;99.90
39525;DHT22;25203;50.754;6.978;2023-05-21T05:49:53;13.50;99.90
39525;DHT22;25203;50.754;6.978;2023-05-21T05:51:53;13.60;99.90
39525;DHT22;25203;50.754;6.978;2023-05-21T05:53:55;13.70;99.90
39525;DHT22;25203;50.754;6.978;2023-05-21T05:55:56;13.80;99.90
39525;DHT22;25203;50.754;6.978;2023-05-21T05:57:57;13.90;99.90
39525;DHT22;25203;50.754;6.978;2023-05-21T05:59:57;13.90;99.90
39525;DHT22;25203;50.754;6.978;2023-05-21T06:01:58;14.00;99.90
39525;DHT22;25203;50.754;6.978;2023-05-21T06:03:59;14.00;99.90
39525;DHT22;25203;50.754;6.978;2023-05-21T06:06:00;14.00;99.90
39525;DHT22;25203;50.754;6.978;2023-05-21T06:08:01;14.10;99.90
39525;DHT22;25203;50.754;6.978;2023-05-21T06:10:01;14.10;99.90
39525;DHT22;25203;50.754;6.978;2023-05-21T06:12:02;14.20;99.90
39525;DHT22;25203;50.754;6.978;2023-05-21T06:14:02;14.30;99.90
39525;DHT22;25203;50.754;6.978;2023-05-21T06:16:03;14.40;99.90
39525;DHT22;25203;50.754;6.978;2023-05-21T06:18:04;14.50;99.90
39525;DHT22;25203;50.754;6.978;2023-05-21T06:20:07;14.60;99.90
39525;DHT22;25203;50.754;6.978;2023-05-21T06:22:08;14.70;99.90
39525;DHT22;25203;50.754;6.978;2023-05-21T06:24:08;14.80;99.90
39525;DHT22;25203;50.754;6.978;2023-05-21T06:26:09;15.00;99.90
39525;DHT22;25203;50.754;6.978;2023-05-21T06:28:10;15.10;99.90
39525;DHT22;25203;50.754;6.978;2023-05-21T06:30:11;15.00;99.90
39525;DHT22;25203;50.754;6.978;2023-05-21T06:32:12;15.10;99.90
39525;DHT22;25203;50.754;6.978;2023-05-21T06:34:12;15.10;99.90
39525;DHT22;25203;50.754;6.978;2023-05-21T06:36:13;15.20;99.90
39525;DHT22;25203;50.754;6.978;2023-05-21T06:38:14;15.30;99.90
39525;DHT22;25203;50.754;6.978;2023-05-21T06:40:15;15.20;99.90
39525;DHT22;25203;50.754;6.978;2023-05-21T06:42:15;15.30;99.90
39525;DHT22;25203;50.754;6.978;2023-05-21T06:44:16;15.30;99.90
39525;DHT22;25203;50.754;6.978;2023-05-21T06:46:17;15.30;99.90
39525;DHT22;25203;50.754;6.978;2023-05-21T06:48:18;15.20;99.90
39525;DHT22;25203;50.754;6.978;2023-05-21T06:50:18;15.20;99.90
39525;DHT22;25203;50.754;6.978;2023-05-21T06:52:19;15.20;99.90
39525;DHT22;25203;50.754;6.978;2023-05-21T06:54:20;15.20;99.90
39525;DHT22;25203;50.754;6.978;2023-05-21T06:56:20;15.20;99.90
39525;DHT22;25203;50.754;6.978;2023-05-21T06:58:21;15.40;99.90
39525;DHT22;25203;50.754;6.978;2023-05-21T07:00:22;15.50;99.90
39525;DHT22;25203;50.754;6.978;2023-05-21T07:02:22;15.70;99.90
39525;DHT22;25203;50.754;6.978;2023-05-21T07:04:23;15.80;99.90
39525;DHT22;25203;50.754;6.978;2023-05-21T07:06:23;15.80;99.90
39525;DHT22;25203;50.754;6.978;2023-05-21T07:08:24;16.00;99.90
39525;DHT22;25203;50.754;6.978;2023-05-21T07:10:24;16.20;99.90
39525;DHT22;25203;50.754;6.978;2023-05-21T07:12:25;16.30;99.90
39525;DHT22;25203;50.754;6.978;2023-05-21T07:14:26;16.50;99.90
39525;DHT22;25203;50.754;6.978;2023-05-21T07:16:26;16.80;99.90
39525;DHT22;25203;50.754;6.978;2023-05-21T07:18:27;16.90;99.90
39525;DHT22;25203;50.754;6.978;2023-05-21T07:20:28;16.90;99.90
39525;DHT22;25203;50.754;6.978;2023-05-21T07:22:28;17.10;99.90
39525;DHT22;25203;50.754;6.978;2023-05-21T07:24:29;17.00;99.90
39525;DHT22;25203;50.754;6.978;2023-05-21T07:26:29;17.10;99.90
39525;DHT22;25203;50.754;6.978;2023-05-21T07:28:30;17.40;99.90
39525;DHT22;25203;50.754;6.978;2023-05-21T07:30:31;17.70;99.90
39525;DHT22;25203;50.754;6.978;2023-05-21T07:32:31;17.80;99.90
39525;DHT22;25203;50.754;6.978;2023-05-21T07:34:32;18.10;99.90
39525;DHT22;25203;50.754;6.978;2023-05-21T07:36:32;18.30;99.90
39525;DHT22;25203;50.754;6.978;2023-05-21T07:38:33;18.40;99.90
39525;DHT22;25203;50.754;6.978;2023-05-21T07:40:34;18.40;99.90
39525;DHT22;25203;50.754;6.978;2023-05-21T07:42:34;18.20;99.90
39525;DHT22;25203;50.754;6.978;2023-05-21T07:44:35;18.20;99.90
39525;DHT22;25203;50.754;6.978;2023-05-21T07:46:36;18.40;99.90
39525;DHT22;25203;50.754;6.978;2023-05-21T07:48:36;18.50;99.90
39525;DHT22;25203;50.754;6.978;2023-05-21T07:50:37;18.70;99.90
39525;DHT22;25203;50.754;6.978;2023-05-21T07:52:38;18.60;99.90
39525;DHT22;25203;50.754;6.978;2023-05-21T07:54:38;18.30;99.90
39525;DHT22;25203;50.754;6.978;2023-05-21T07:56:39;18.20;99.90
39525;DHT22;25203;50.754;6.978;2023-05-21T07:58:39;17.90;99.90
39525;DHT22;25203;50.754;6.978;2023-05-21T08:00:44;17.70;99.90
39525;DHT22;25203;50.754;6.978;2023-05-21T08:02:46;17.30;99.90
39525;DHT22;25203;50.754;6.978;2023-05-21T08:04:46;16.90;99.90
39525;DHT22;25203;50.754;6.978;2023-05-21T08:06:47;16.60;99.90
39525;DHT22;25203;50.754;6.978;2023-05-21T08:08:48;16.50;99.90
39525;DHT22;25203;50.754;6.978;2023-05-21T08:10:48;16.60;99.90
39525;DHT22;25203;50.754;6.978;2023-05-21T08:12:49;16.80;99.90
39525;DHT22;25203;50.754;6.978;2023-05-21T08:14:50;17.00;99.90
39525;DHT22;25203;50.754;6.978;2023-05-21T08:16:51;17.40;99.90
39525;DHT22;25203;50.754;6.978;2023-05-21T08:18:51;17.90;99.90
39525;DHT22;25203;50.754;6.978;2023-05-21T08:20:52;18.50;99.90
39525;DHT22;25203;50.754;6.978;2023-05-21T08:22:52;19.30;99.90
39525;DHT22;25203;50.754;6.978;2023-05-21T08:24:54;20.20;99.90
39525;DHT22;25203;50.754;6.978;2023-05-21T08:26:54;21.20;99.90
39525;DHT22;25203;50.754;6.978;2023-05-21T08:28:55;21.90;97.00
39525;DHT22;25203;50.754;6.978;2023-05-21T08:30:55;22.20;96.00
39525;DHT22;25203;50.754;6.978;2023-05-21T08:32:56;22.30;96.00
39525;DHT22;25203;50.754;6.978;2023-05-21T08:34:57;22.30;95.80
39525;DHT22;25203;50.754;6.978;2023-05-21T08:37:00;22.50;95.10
39525;DHT22;25203;50.754;6.978;2023-05-21T08:39:00;22.70;95.00
39525;DHT22;25203;50.754;6.978;2023-05-21T08:41:01;23.20;94.50
39525;DHT22;25203;50.754;6.978;2023-05-21T08:43:04;23.80;92.40
39525;DHT22;25203;50.754;6.978;2023-05-21T08:45:05;24.20;91.80
39525;DHT22;25203;50.754;6.978;2023-05-21T08:47:09;24.60;91.40
39525;DHT22;25203;50.754;6.978;2023-05-21T08:49:12;25.10;90.50
39525;DHT22;25203;50.754;6.978;2023-05-21T08:51:13;25.70;89.10
39525;DHT22;25203;50.754;6.978;2023-05-21T08:53:14;26.40;86.40
39525;DHT22;25203;50.754;6.978;2023-05-21T08:55:15;27.50;82.50
39525;DHT22;25203;50.754;6.978;2023-05-21T08:57:17;27.60;79.40
39525;DHT22;25203;50.754;6.978;2023-05-21T08:59:20;27.00;79.60
39525;DHT22;25203;50.754;6.978;2023-05-21T09:01:21;26.50;78.80
39525;DHT22;25203;50.754;6.978;2023-05-21T09:03:22;26.50;80.50
39525;DHT22;25203;50.754;6.978;2023-05-21T09:05:24;27.10;79.80
39525;DHT22;25203;50.754;6.978;2023-05-21T09:07:25;28.00;77.60
39525;DHT22;25203;50.754;6.978;2023-05-21T09:09:32;28.30;77.80
39525;DHT22;25203;50.754;6.978;2023-05-21T09:11:33;29.10;75.40
39525;DHT22;25203;50.754;6.978;2023-05-21T09:13:35;29.70;73.50
39525;DHT22;25203;50.754;6.978;2023-05-21T09:15:37;30.50;72.20
39525;DHT22;25203;50.754;6.978;2023-05-21T09:17:37;30.90;69.70
39525;DHT22;25203;50.754;6.978;2023-05-21T09:19:38;31.40;68.50
39525;DHT22;25203;50.754;6.978;2023-05-21T09:22:02;30.90;67.20
39525;DHT22;25203;50.754;6.978;2023-05-21T09:24:04;30.80;68.40
39525;DHT22;25203;50.754;6.978;2023-05-21T09:26:11;30.70;67.40
39525;DHT22;25203;50.754;6.978;2023-05-21T09:28:13;29.70;67.90
39525;DHT22;25203;50.754;6.978;2023-05-21T09:30:15;29.30;69.30
39525;DHT22;25203;50.754;6.978;2023-05-21T09:32:17;30.00;67.70
39525;DHT22;25203;50.754;6.978;2023-05-21T09:34:17;30.70;66.80
39525;DHT22;25203;50.754;6.978;2023-05-21T09:36:21;31.50;65.90
39525;DHT22;25203;50.754;6.978;2023-05-21T09:38:23;32.10;64.50
39525;DHT22;25203;50.754;6.978;2023-05-21T09:40:24;31.70;64.60
39525;DHT22;25203;50.754;6.978;2023-05-21T09:42:28;32.00;64.10
39525;DHT22;25203;50.754;6.978;2023-05-21T09:44:29;32.70;63.50
39525;DHT22;25203;50.754;6.978;2023-05-21T09:46:39;32.90;62.20
39525;DHT22;25203;50.754;6.978;2023-05-21T09:48:41;32.50;61.40
39525;DHT22;25203;50.754;6.978;2023-05-21T09:50:42;31.70;62.30
39525;DHT22;25203;50.754;6.978;2023-05-21T09:52:43;30.10;63.60
39525;DHT22;25203;50.754;6.978;2023-05-21T09:54:44;28.60;66.20
39525;DHT22;25203;50.754;6.978;2023-05-21T09:56:45;27.60;68.40
39525;DHT22;25203;50.754;6.978;2023-05-21T09:58:45;27.60;68.90
39525;DHT22;25203;50.754;6.978;2023-05-21T10:00:46;27.40;69.00
39525;DHT22;25203;50.754;6.978;2023-05-21T10:03:00;27.50;68.90
39525;DHT22;25203;50.754;6.978;2023-05-21T10:05:01;28.00;68.90
39525;DHT22;25203;50.754;6.978;2023-05-21T10:07:04;29.20;67.80
39525;DHT22;25203;50.754;6.978;2023-05-21T10:09:08;29.90;65.60
39525;DHT22;25203;50.754;6.978;2023-05-21T10:11:10;30.00;65.20
39525;DHT22;25203;50.754;6.978;2023-05-21T10:13:11;30.60;65.30
39525;DHT22;25203;50.754;6.978;2023-05-21T10:15:15;31.20;64.20
39525;DHT22;25203;50.754;6.978;2023-05-21T10:17:17;31.10;64.20
39525;DHT22;25203;50.754;6.978;2023-05-21T10:19:18;31.50;64.50
39525;DHT22;25203;50.754;6.978;2023-05-21T10:21:20;31.70;63.50
39525;DHT22;25203;50.754;6.978;2023-05-21T10:23:22;32.80;62.70
39525;DHT22;25203;50.754;6.978;2023-05-21T10:25:25;33.80;62.40
39525;DHT22;25203;50.754;6.978;2023-05-21T10:27:26;33.80;60.70
39525;DHT22;25203;50.754;6.978;2023-05-21T10:29:29;33.20;60.50
39525;DHT22;25203;50.754;6.978;2023-05-21T10:31:30;31.70;62.10
39525;DHT22;25203;50.754;6.978;2023-05-21T10:33:34;30.70;63.20
39525;DHT22;25203;50.754;6.978;2023-05-21T10:35:37;29.80;64.90
39525;DHT22;25203;50.754;6.978;2023-05-21T10:37:40;29.90;65.10
39525;DHT22;25203;50.754;6.978;2023-05-21T10:39:43;30.90;64.50
39525;DHT22;25203;50.754;6.978;2023-05-21T10:41:54;31.30;63.50
39525;DHT22;25203;50.754;6.978;2023-05-21T10:55:57;33.00;60.60
39525;DHT22;25203;50.754;6.978;2023-05-21T10:58:19;33.30;59.80
39525;DHT22;25203;50.754;6.978;2023-05-21T11:00:23;33.40;59.10
39525;DHT22;25203;50.754;6.978;2023-05-21T11:02:25;33.40;60.10
39525;DHT22;25203;50.754;6.978;2023-05-21T11:04:26;33.50;59.80
39525;DHT22;25203;50.754;6.978;2023-05-21T11:06:27;33.40;59.70
39525;DHT22;25203;50.754;6.978;2023-05-21T11:08:30;33.60;59.40
39525;DHT22;25203;50.754;6.978;2023-05-21T11:10:38;33.10;59.80
39525;DHT22;25203;50.754;6.978;2023-05-21T11:13:13;33.00;59.80
39525;DHT22;25203;50.754;6.978;2023-05-21T11:15:14;32.30;60.00
39525;DHT22;25203;50.754;6.978;2023-05-21T11:17:15;31.50;60.90
39525;DHT22;25203;50.754;6.978;2023-05-21T11:19:45;31.40;61.70
39525;DHT22;25203;50.754;6.978;2023-05-21T11:21:50;30.30;62.00
39525;DHT22;25203;50.754;6.978;2023-05-21T11:23:55;29.40;64.20
39525;DHT22;25203;50.754;6.978;2023-05-21T11:26:00;29.20;64.70
39525;DHT22;25203;50.754;6.978;2023-05-21T11:28:04;29.10;64.90
39525;DHT22;25203;50.754;6.978;2023-05-21T11:30:15;29.00;65.30
39525;DHT22;25203;50.754;6.978;2023-05-21T11:32:16;29.90;64.70
39525;DHT22;25203;50.754;6.978;2023-05-21T11:34:21;30.80;63.00
39525;DHT22;25203;50.754;6.978;2023-05-21T11:36:28;31.90;62.30
39525;DHT22;25203;50.754;6.978;2023-05-21T11:38:32;31.40;61.80
39525;DHT22;25203;50.754;6.978;2023-05-21T11:40:34;30.90;62.00
39525;DHT22;25203;50.754;6.978;2023-05-21T11:42:38;30.60;62.80
39525;DHT22;25203;50.754;6.978;2023-05-21T11:44:39;30.60;63.20
39525;DHT22;25203;50.754;6.978;2023-05-21T11:46:41;29.50;64.10
39525;DHT22;25203;50.754;6.978;2023-05-21T11:48:43;29.60;65.00
39525;DHT22;25203;50.754;6.978;2023-05-21T11:50:44;30.40;63.80
39525;DHT22;25203;50.754;6.978;2023-05-21T11:52:45;31.50;62.40
39525;DHT22;25203;50.754;6.978;2023-05-21T11:54:47;32.00;62.00
39525;DHT22;25203;50.754;6.978;2023-05-21T11:56:49;32.00;61.80
39525;DHT22;25203;50.754;6.978;2023-05-21T11:58:53;32.50;61.30
39525;DHT22;25203;50.754;6.978;2023-05-21T12:00:55;32.80;60.60
39525;DHT22;25203;50.754;6.978;2023-05-21T12:02:55;32.30;61.50
39525;DHT22;25203;50.754;6.978;2023-05-21T12:04:56;31.80;60.90
39525;DHT22;25203;50.754;6.978;2023-05-21T12:07:03;30.80;62.70
39525;DHT22;25203;50.754;6.978;2023-05-21T12:09:04;30.20;63.00
39525;DHT22;25203;50.754;6.978;2023-05-21T12:11:04;29.50;64.60
39525;DHT22;25203;50.754;6.978;2023-05-21T12:13:05;29.20;65.80
39525;DHT22;25203;50.754;6.978;2023-05-21T12:15:06;29.30;65.70
39525;DHT22;25203;50.754;6.978;2023-05-21T12:17:07;29.60;65.90
39525;DHT22;25203;50.754;6.978;2023-05-21T12:19:09;30.50;65.10
39525;DHT22;25203;50.754;6.978;2023-05-21T12:21:10;30.80;62.80
39525;DHT22;25203;50.754;6.978;2023-05-21T12:23:22;30.40;63.40
39525;DHT22;25203;50.754;6.978;2023-05-21T12:25:23;30.10;63.90
39525;DHT22;25203;50.754;6.978;2023-05-21T12:27:24;30.50;63.10
39525;DHT22;25203;50.754;6.978;2023-05-21T12:29:26;30.40;63.30
39525;DHT22;25203;50.754;6.978;2023-05-21T12:31:29;30.00;64.40
39525;DHT22;25203;50.754;6.978;2023-05-21T12:33:33;30.20;65.30
39525;DHT22;25203;50.754;6.978;2023-05-21T12:35:34;29.50;65.50
39525;DHT22;25203;50.754;6.978;2023-05-21T12:37:36;29.10;65.40
39525;DHT22;25203;50.754;6.978;2023-05-21T12:39:38;28.70;66.10
39525;DHT22;25203;50.754;6.978;2023-05-21T12:41:38;28.30;66.80
39525;DHT22;25203;50.754;6.978;2023-05-21T12:43:40;27.90;67.30
39525;DHT22;25203;50.754;6.978;2023-05-21T12:45:42;28.10;67.10
39525;DHT22;25203;50.754;6.978;2023-05-21T12:47:46;28.00;67.50
39525;DHT22;25203;50.754;6.978;2023-05-21T12:49:48;27.80;67.70
39525;DHT22;25203;50.754;6.978;2023-05-21T12:51:48;27.40;68.30
39525;DHT22;25203;50.754;6.978;2023-05-21T12:53:50;27.20;69.40
39525;DHT22;25203;50.754;6.978;2023-05-21T12:55:50;27.30;69.20
39525;DHT22;25203;50.754;6.978;2023-05-21T12:58:04;27.60;69.10
39525;DHT22;25203;50.754;6.978;2023-05-21T13:00:07;27.90;67.60
39525;DHT22;25203;50.754;6.978;2023-05-21T13:02:34;27.90;68.10
39525;DHT22;25203;50.754;6.978;2023-05-21T13:04:35;27.70;67.80